KMWA/MWA METAR and TAF weather

Enter ICAO airport designator
Station Type Date Time Source
KMWA METAR 2020/01/23 14:45 UTC NOAA

KMWA 231445Z 16007KT 10SM BKN032 OVC065 03/M03 A3007


Station Type Date Time Source
KMWA Decoded METAR 2020/01/23 14:45 UTC NOAA

Marion, Williamson County Regional Airport, IL, United States (KMWA) 37-45-01N 089-00-04W
Jan 23, 2020 - 09:45 AM EST / 2020.01.23 1445 UTC
Wind: from the SSE (160 degrees) at 8 MPH (7 KT):0
Visibility: 10 mile(s):0
Sky conditions: overcast
Temperature: 37 F (3 C)
Dew Point: 26 F (-3 C)
Relative Humidity: 64%
Pressure (altimeter): 30.07 in. Hg (1018 hPa)
ob: KMWA 231445Z 16007KT 10SM BKN032 OVC065 03/M03 A3007
cycle: 15

Station Type Date Time Source
KMWA TAF UTC NOAA

Error!

Example: see airport list